sensor_id;sensor_type;location;lat;lon;timestamp;temperature;humidity
2995;DHT22;35277;49.890;8.222;2023-09-12T00:01:54;28.30;76.60
2995;DHT22;35277;49.890;8.222;2023-09-12T00:04:23;28.30;76.60
2995;DHT22;35277;49.890;8.222;2023-09-12T00:06:51;28.30;76.60
2995;DHT22;35277;49.890;8.222;2023-09-12T00:09:19;28.30;76.60
2995;DHT22;35277;49.890;8.222;2023-09-12T00:11:47;28.30;76.60
2995;DHT22;35277;49.890;8.222;2023-09-12T00:14:15;28.30;76.60
2995;DHT22;35277;49.890;8.222;2023-09-12T00:16:43;28.30;76.60
2995;DHT22;35277;49.890;8.222;2023-09-12T00:19:11;28.30;76.70
2995;DHT22;35277;49.890;8.222;2023-09-12T00:21:40;28.30;76.60
2995;DHT22;35277;49.890;8.222;2023-09-12T00:24:08;28.30;76.60
2995;DHT22;35277;49.890;8.222;2023-09-12T00:26:36;28.30;76.60
2995;DHT22;35277;49.890;8.222;2023-09-12T00:29:04;28.30;76.70
2995;DHT22;35277;49.890;8.222;2023-09-12T00:31:31;28.30;76.60
2995;DHT22;35277;49.890;8.222;2023-09-12T00:33:59;28.30;76.70
2995;DHT22;35277;49.890;8.222;2023-09-12T00:36:27;28.30;76.60
2995;DHT22;35277;49.890;8.222;2023-09-12T00:38:57;28.30;76.70
2995;DHT22;35277;49.890;8.222;2023-09-12T00:41:25;28.30;76.60
2995;DHT22;35277;49.890;8.222;2023-09-12T00:43:53;28.30;76.70
2995;DHT22;35277;49.890;8.222;2023-09-12T00:46:21;28.30;76.60
2995;DHT22;35277;49.890;8.222;2023-09-12T00:48:51;28.30;76.70
2995;DHT22;35277;49.890;8.222;2023-09-12T00:51:20;28.30;76.70
2995;DHT22;35277;49.890;8.222;2023-09-12T00:53:49;28.30;76.70
2995;DHT22;35277;49.890;8.222;2023-09-12T00:56:18;28.30;76.70
2995;DHT22;35277;49.890;8.222;2023-09-12T00:58:46;28.30;76.70
2995;DHT22;35277;49.890;8.222;2023-09-12T01:01:14;28.30;76.70
2995;DHT22;35277;49.890;8.222;2023-09-12T01:03:42;28.30;76.70
2995;DHT22;35277;49.890;8.222;2023-09-12T01:06:10;28.30;76.70
2995;DHT22;35277;49.890;8.222;2023-09-12T01:08:38;28.30;76.70
2995;DHT22;35277;49.890;8.222;2023-09-12T01:11:06;28.30;76.70
2995;DHT22;35277;49.890;8.222;2023-09-12T01:13:36;28.30;76.70
2995;DHT22;35277;49.890;8.222;2023-09-12T01:16:03;28.30;76.70
2995;DHT22;35277;49.890;8.222;2023-09-12T01:18:31;28.30;76.70
2995;DHT22;35277;49.890;8.222;2023-09-12T01:21:22;28.30;76.70
2995;DHT22;35277;49.890;8.222;2023-09-12T01:24:04;28.30;76.70
2995;DHT22;35277;49.890;8.222;2023-09-12T01:26:47;28.30;76.70
2995;DHT22;35277;49.890;8.222;2023-09-12T01:29:18;28.30;76.70
2995;DHT22;35277;49.890;8.222;2023-09-12T01:31:49;28.30;76.70
2995;DHT22;35277;49.890;8.222;2023-09-12T01:34:18;28.30;76.70
2995;DHT22;35277;49.890;8.222;2023-09-12T01:36:46;28.30;76.70
2995;DHT22;35277;49.890;8.222;2023-09-12T01:39:14;28.30;76.70
2995;DHT22;35277;49.890;8.222;2023-09-12T01:41:44;28.30;76.70
2995;DHT22;35277;49.890;8.222;2023-09-12T01:44:14;28.30;76.70
2995;DHT22;35277;49.890;8.222;2023-09-12T01:46:43;28.30;76.70
2995;DHT22;35277;49.890;8.222;2023-09-12T01:49:13;28.30;76.80
2995;DHT22;35277;49.890;8.222;2023-09-12T01:51:41;28.30;76.70
2995;DHT22;35277;49.890;8.222;2023-09-12T01:54:10;28.30;76.70
2995;DHT22;35277;49.890;8.222;2023-09-12T01:56:38;28.30;76.70
2995;DHT22;35277;49.890;8.222;2023-09-12T01:59:07;28.30;76.80
2995;DHT22;35277;49.890;8.222;2023-09-12T02:01:35;28.30;76.70
2995;DHT22;35277;49.890;8.222;2023-09-12T02:04:04;28.30;76.70
2995;DHT22;35277;49.890;8.222;2023-09-12T02:06:35;28.30;76.70
2995;DHT22;35277;49.890;8.222;2023-09-12T02:09:03;28.30;76.70
2995;DHT22;35277;49.890;8.222;2023-09-12T02:11:31;28.30;76.80
2995;DHT22;35277;49.890;8.222;2023-09-12T02:13:59;28.30;76.70
2995;DHT22;35277;49.890;8.222;2023-09-12T02:16:27;28.30;76.70
2995;DHT22;35277;49.890;8.222;2023-09-12T02:18:55;28.30;76.80
2995;DHT22;35277;49.890;8.222;2023-09-12T02:21:24;28.30;76.80
2995;DHT22;35277;49.890;8.222;2023-09-12T02:23:52;28.30;76.70
2995;DHT22;35277;49.890;8.222;2023-09-12T02:26:20;28.30;76.80
2995;DHT22;35277;49.890;8.222;2023-09-12T02:28:48;28.30;76.80
2995;DHT22;35277;49.890;8.222;2023-09-12T02:31:15;28.30;76.80
2995;DHT22;35277;49.890;8.222;2023-09-12T02:33:45;28.30;76.80
2995;DHT22;35277;49.890;8.222;2023-09-12T02:36:13;28.30;76.80
2995;DHT22;35277;49.890;8.222;2023-09-12T02:38:42;28.30;76.80
2995;DHT22;35277;49.890;8.222;2023-09-12T02:41:10;28.30;76.80
2995;DHT22;35277;49.890;8.222;2023-09-12T02:43:37;28.30;76.80
2995;DHT22;35277;49.890;8.222;2023-09-12T02:46:05;28.30;76.80
2995;DHT22;35277;49.890;8.222;2023-09-12T02:48:33;28.30;76.80
2995;DHT22;35277;49.890;8.222;2023-09-12T02:51:01;28.30;76.80
2995;DHT22;35277;49.890;8.222;2023-09-12T02:53:29;28.30;76.80
2995;DHT22;35277;49.890;8.222;2023-09-12T02:55:58;28.30;76.80
2995;DHT22;35277;49.890;8.222;2023-09-12T02:58:26;28.30;76.80
2995;DHT22;35277;49.890;8.222;2023-09-12T03:00:54;28.30;76.80
2995;DHT22;35277;49.890;8.222;2023-09-12T03:03:22;28.30;76.90
2995;DHT22;35277;49.890;8.222;2023-09-12T03:05:57;28.30;76.90
2995;DHT22;35277;49.890;8.222;2023-09-12T03:08:25;28.30;76.90
2995;DHT22;35277;49.890;8.222;2023-09-12T03:10:55;28.30;76.90
2995;DHT22;35277;49.890;8.222;2023-09-12T03:13:25;28.30;76.90
2995;DHT22;35277;49.890;8.222;2023-09-12T03:15:53;28.30;76.90
2995;DHT22;35277;49.890;8.222;2023-09-12T03:18:21;28.30;76.90
2995;DHT22;35277;49.890;8.222;2023-09-12T03:20:49;28.30;76.90
2995;DHT22;35277;49.890;8.222;2023-09-12T03:23:18;28.30;76.90
2995;DHT22;35277;49.890;8.222;2023-09-12T03:25:46;28.30;76.90
2995;DHT22;35277;49.890;8.222;2023-09-12T03:28:15;28.30;76.90
2995;DHT22;35277;49.890;8.222;2023-09-12T03:30:44;28.30;76.90
2995;DHT22;35277;49.890;8.222;2023-09-12T03:33:12;28.30;76.90
2995;DHT22;35277;49.890;8.222;2023-09-12T03:35:43;28.30;76.90
2995;DHT22;35277;49.890;8.222;2023-09-12T03:38:11;28.30;76.90
2995;DHT22;35277;49.890;8.222;2023-09-12T03:40:39;28.30;76.90
2995;DHT22;35277;49.890;8.222;2023-09-12T03:43:07;28.30;76.90
2995;DHT22;35277;49.890;8.222;2023-09-12T03:45:35;28.30;76.90
2995;DHT22;35277;49.890;8.222;2023-09-12T03:48:05;28.30;76.90
2995;DHT22;35277;49.890;8.222;2023-09-12T03:50:33;28.30;76.90
2995;DHT22;35277;49.890;8.222;2023-09-12T03:53:01;28.20;76.90
2995;DHT22;35277;49.890;8.222;2023-09-12T03:55:29;28.20;76.90
2995;DHT22;35277;49.890;8.222;2023-09-12T03:57:57;28.20;76.90
2995;DHT22;35277;49.890;8.222;2023-09-12T04:00:25;28.30;76.90
2995;DHT22;35277;49.890;8.222;2023-09-12T04:02:53;28.20;76.90
2995;DHT22;35277;49.890;8.222;2023-09-12T04:05:23;28.30;76.90
2995;DHT22;35277;49.890;8.222;2023-09-12T04:07:51;28.20;76.90
2995;DHT22;35277;49.890;8.222;2023-09-12T04:10:20;28.20;76.90
2995;DHT22;35277;49.890;8.222;2023-09-12T04:12:48;28.20;76.90
2995;DHT22;35277;49.890;8.222;2023-09-12T04:15:17;28.20;76.90
2995;DHT22;35277;49.890;8.222;2023-09-12T04:17:46;28.20;76.90
2995;DHT22;35277;49.890;8.222;2023-09-12T04:20:14;28.20;76.90
2995;DHT22;35277;49.890;8.222;2023-09-12T04:22:43;28.20;76.90
2995;DHT22;35277;49.890;8.222;2023-09-12T04:25:12;28.20;76.90
2995;DHT22;35277;49.890;8.222;2023-09-12T04:27:41;28.20;76.90
2995;DHT22;35277;49.890;8.222;2023-09-12T04:30:10;28.20;76.90
2995;DHT22;35277;49.890;8.222;2023-09-12T04:32:38;28.20;76.90
2995;DHT22;35277;49.890;8.222;2023-09-12T04:35:07;28.20;76.90
2995;DHT22;35277;49.890;8.222;2023-09-12T04:37:34;28.20;76.90
2995;DHT22;35277;49.890;8.222;2023-09-12T04:40:06;28.20;76.90
2995;DHT22;35277;49.890;8.222;2023-09-12T04:42:35;28.20;76.90
2995;DHT22;35277;49.890;8.222;2023-09-12T04:45:03;28.20;76.90
2995;DHT22;35277;49.890;8.222;2023-09-12T04:47:32;28.20;76.90
2995;DHT22;35277;49.890;8.222;2023-09-12T04:50:00;28.20;76.80
2995;DHT22;35277;49.890;8.222;2023-09-12T04:52:28;28.20;76.90
2995;DHT22;35277;49.890;8.222;2023-09-12T04:54:59;28.20;76.90
2995;DHT22;35277;49.890;8.222;2023-09-12T04:57:30;28.20;76.90
2995;DHT22;35277;49.890;8.222;2023-09-12T04:59:59;28.20;76.90
2995;DHT22;35277;49.890;8.222;2023-09-12T05:02:27;28.20;76.90
2995;DHT22;35277;49.890;8.222;2023-09-12T05:04:55;28.20;76.80
2995;DHT22;35277;49.890;8.222;2023-09-12T05:07:24;28.20;76.80
2995;DHT22;35277;49.890;8.222;2023-09-12T05:09:52;28.20;76.80
2995;DHT22;35277;49.890;8.222;2023-09-12T05:12:20;28.20;76.80
2995;DHT22;35277;49.890;8.222;2023-09-12T05:14:49;28.20;76.80
2995;DHT22;35277;49.890;8.222;2023-09-12T05:17:17;28.20;76.80
2995;DHT22;35277;49.890;8.222;2023-09-12T05:19:45;28.20;76.80
2995;DHT22;35277;49.890;8.222;2023-09-12T05:22:13;28.20;76.80
2995;DHT22;35277;49.890;8.222;2023-09-12T05:24:40;28.20;76.80
2995;DHT22;35277;49.890;8.222;2023-09-12T05:27:08;28.20;76.80
2995;DHT22;35277;49.890;8.222;2023-09-12T05:29:36;28.20;76.80
2995;DHT22;35277;49.890;8.222;2023-09-12T05:32:06;28.20;76.80
2995;DHT22;35277;49.890;8.222;2023-09-12T05:34:34;28.20;76.80
2995;DHT22;35277;49.890;8.222;2023-09-12T05:37:02;28.20;76.80
2995;DHT22;35277;49.890;8.222;2023-09-12T05:39:30;28.20;76.80
2995;DHT22;35277;49.890;8.222;2023-09-12T05:41:58;28.20;76.80
2995;DHT22;35277;49.890;8.222;2023-09-12T05:44:26;28.20;77.60
2995;DHT22;35277;49.890;8.222;2023-09-12T05:46:54;28.20;76.80
2995;DHT22;35277;49.890;8.222;2023-09-12T05:49:24;28.20;76.80
2995;DHT22;35277;49.890;8.222;2023-09-12T05:51:52;28.20;76.90
2995;DHT22;35277;49.890;8.222;2023-09-12T05:54:20;28.20;76.80
2995;DHT22;35277;49.890;8.222;2023-09-12T05:56:47;28.20;76.80
2995;DHT22;35277;49.890;8.222;2023-09-12T05:59:15;28.20;76.80
2995;DHT22;35277;49.890;8.222;2023-09-12T06:01:43;28.20;76.80
2995;DHT22;35277;49.890;8.222;2023-09-12T06:04:11;28.20;76.80
2995;DHT22;35277;49.890;8.222;2023-09-12T06:06:41;28.20;76.80
2995;DHT22;35277;49.890;8.222;2023-09-12T06:09:09;28.20;76.80
2995;DHT22;35277;49.890;8.222;2023-09-12T06:11:37;28.20;76.90
2995;DHT22;35277;49.890;8.222;2023-09-12T06:14:04;28.20;76.90
2995;DHT22;35277;49.890;8.222;2023-09-12T06:16:32;28.20;76.80
2995;DHT22;35277;49.890;8.222;2023-09-12T06:19:00;28.20;76.80
2995;DHT22;35277;49.890;8.222;2023-09-12T06:21:28;28.20;76.80
2995;DHT22;35277;49.890;8.222;2023-09-12T06:24:11;28.20;76.80
2995;DHT22;35277;49.890;8.222;2023-09-12T06:26:40;28.20;76.90
2995;DHT22;35277;49.890;8.222;2023-09-12T06:29:08;28.20;76.80
2995;DHT22;35277;49.890;8.222;2023-09-12T06:31:36;28.20;76.80
2995;DHT22;35277;49.890;8.222;2023-09-12T06:34:04;28.20;76.80
2995;DHT22;35277;49.890;8.222;2023-09-12T06:36:32;28.20;76.80
2995;DHT22;35277;49.890;8.222;2023-09-12T06:39:00;28.20;76.90
2995;DHT22;35277;49.890;8.222;2023-09-12T06:41:31;28.20;76.80
2995;DHT22;35277;49.890;8.222;2023-09-12T06:43:59;28.20;76.80
2995;DHT22;35277;49.890;8.222;2023-09-12T06:46:29;28.20;76.90
2995;DHT22;35277;49.890;8.222;2023-09-12T06:48:57;28.20;76.80
2995;DHT22;35277;49.890;8.222;2023-09-12T06:51:25;28.20;76.80
2995;DHT22;35277;49.890;8.222;2023-09-12T06:54:00;28.20;76.80
2995;DHT22;35277;49.890;8.222;2023-09-12T06:56:30;28.20;76.80
2995;DHT22;35277;49.890;8.222;2023-09-12T06:58:58;28.20;76.80
2995;DHT22;35277;49.890;8.222;2023-09-12T07:01:26;28.20;76.80
2995;DHT22;35277;49.890;8.222;2023-09-12T07:03:54;28.20;76.90
2995;DHT22;35277;49.890;8.222;2023-09-12T07:06:23;28.20;76.90
2995;DHT22;35277;49.890;8.222;2023-09-12T07:08:51;28.20;76.90
2995;DHT22;35277;49.890;8.222;2023-09-12T07:11:19;28.20;76.90
2995;DHT22;35277;49.890;8.222;2023-09-12T07:13:48;28.20;76.90
2995;DHT22;35277;49.890;8.222;2023-09-12T07:16:18;28.20;76.90
2995;DHT22;35277;49.890;8.222;2023-09-12T07:18:47;28.20;76.90
2995;DHT22;35277;49.890;8.222;2023-09-12T07:21:16;28.20;76.90
2995;DHT22;35277;49.890;8.222;2023-09-12T07:23:43;28.20;77.00
2995;DHT22;35277;49.890;8.222;2023-09-12T07:26:12;28.20;77.00
2995;DHT22;35277;49.890;8.222;2023-09-12T07:28:41;28.20;77.00
2995;DHT22;35277;49.890;8.222;2023-09-12T07:31:10;28.20;77.00
2995;DHT22;35277;49.890;8.222;2023-09-12T07:33:38;28.20;77.00
2995;DHT22;35277;49.890;8.222;2023-09-12T07:36:08;28.20;77.00
2995;DHT22;35277;49.890;8.222;2023-09-12T07:38:36;28.30;77.00
2995;DHT22;35277;49.890;8.222;2023-09-12T07:41:04;28.30;77.00
2995;DHT22;35277;49.890;8.222;2023-09-12T07:43:32;28.30;77.10
2995;DHT22;35277;49.890;8.222;2023-09-12T07:46:00;28.30;77.00
2995;DHT22;35277;49.890;8.222;2023-09-12T07:48:29;28.30;77.00
2995;DHT22;35277;49.890;8.222;2023-09-12T07:50:57;28.30;77.00
2995;DHT22;35277;49.890;8.222;2023-09-12T07:53:25;28.30;77.00
2995;DHT22;35277;49.890;8.222;2023-09-12T07:55:53;28.30;77.00
2995;DHT22;35277;49.890;8.222;2023-09-12T07:58:21;28.30;77.00
2995;DHT22;35277;49.890;8.222;2023-09-12T08:00:49;28.30;77.00
2995;DHT22;35277;49.890;8.222;2023-09-12T08:03:17;28.30;77.00
2995;DHT22;35277;49.890;8.222;2023-09-12T08:05:55;28.30;77.00
2995;DHT22;35277;49.890;8.222;2023-09-12T08:08:23;28.30;77.00
2995;DHT22;35277;49.890;8.222;2023-09-12T08:10:51;28.30;77.00
2995;DHT22;35277;49.890;8.222;2023-09-12T08:13:19;28.30;77.10
2995;DHT22;35277;49.890;8.222;2023-09-12T08:15:47;28.30;77.10
2995;DHT22;35277;49.890;8.222;2023-09-12T08:18:14;28.30;77.00
2995;DHT22;35277;49.890;8.222;2023-09-12T08:20:43;28.30;77.00
2995;DHT22;35277;49.890;8.222;2023-09-12T08:23:12;28.30;77.10
2995;DHT22;35277;49.890;8.222;2023-09-12T08:25:40;28.30;77.10
2995;DHT22;35277;49.890;8.222;2023-09-12T08:28:08;28.30;77.10
2995;DHT22;35277;49.890;8.222;2023-09-12T08:30:36;28.30;77.10
2995;DHT22;35277;49.890;8.222;2023-09-12T08:33:04;28.30;77.00
2995;DHT22;35277;49.890;8.222;2023-09-12T08:35:33;28.30;77.00
2995;DHT22;35277;49.890;8.222;2023-09-12T08:38:01;28.30;77.00
2995;DHT22;35277;49.890;8.222;2023-09-12T08:40:30;28.30;77.00
2995;DHT22;35277;49.890;8.222;2023-09-12T08:42:58;28.30;77.00
2995;DHT22;35277;49.890;8.222;2023-09-12T08:45:26;28.30;77.00
2995;DHT22;35277;49.890;8.222;2023-09-12T08:47:56;28.30;77.00
2995;DHT22;35277;49.890;8.222;2023-09-12T08:50:25;28.30;77.00
2995;DHT22;35277;49.890;8.222;2023-09-12T08:52:57;28.30;77.00
2995;DHT22;35277;49.890;8.222;2023-09-12T08:55:35;28.30;77.00
2995;DHT22;35277;49.890;8.222;2023-09-12T08:58:05;28.30;77.00
2995;DHT22;35277;49.890;8.222;2023-09-12T09:00:34;28.30;77.00
2995;DHT22;35277;49.890;8.222;2023-09-12T09:03:03;28.30;77.00
2995;DHT22;35277;49.890;8.222;2023-09-12T09:05:33;28.30;77.00
2995;DHT22;35277;49.890;8.222;2023-09-12T09:08:02;28.30;77.00
2995;DHT22;35277;49.890;8.222;2023-09-12T09:10:30;28.30;77.00
2995;DHT22;35277;49.890;8.222;2023-09-12T09:13:18;28.40;77.10
2995;DHT22;35277;49.890;8.222;2023-09-12T09:15:46;28.40;77.10
2995;DHT22;35277;49.890;8.222;2023-09-12T09:18:14;28.40;77.10
2995;DHT22;35277;49.890;8.222;2023-09-12T09:20:42;28.40;77.20
2995;DHT22;35277;49.890;8.222;2023-09-12T09:23:12;28.40;77.10
2995;DHT22;35277;49.890;8.222;2023-09-12T09:25:41;28.40;77.10
2995;DHT22;35277;49.890;8.222;2023-09-12T09:28:18;28.40;77.10
2995;DHT22;35277;49.890;8.222;2023-09-12T09:30:48;28.40;77.20
2995;DHT22;35277;49.890;8.222;2023-09-12T09:33:18;28.40;77.20
2995;DHT22;35277;49.890;8.222;2023-09-12T09:35:47;28.40;77.20
2995;DHT22;35277;49.890;8.222;2023-09-12T09:38:19;28.40;77.10
2995;DHT22;35277;49.890;8.222;2023-09-12T09:40:48;28.40;77.10
2995;DHT22;35277;49.890;8.222;2023-09-12T09:43:21;28.40;77.20
2995;DHT22;35277;49.890;8.222;2023-09-12T09:45:49;28.40;77.10
2995;DHT22;35277;49.890;8.222;2023-09-12T09:48:18;28.40;77.10
2995;DHT22;35277;49.890;8.222;2023-09-12T09:50:46;28.40;77.10
2995;DHT22;35277;49.890;8.222;2023-09-12T09:53:14;28.50;77.20
2995;DHT22;35277;49.890;8.222;2023-09-12T09:55:42;28.50;77.20
2995;DHT22;35277;49.890;8.222;2023-09-12T09:58:15;28.50;77.20
2995;DHT22;35277;49.890;8.222;2023-09-12T10:00:46;28.50;77.20
2995;DHT22;35277;49.890;8.222;2023-09-12T10:03:19;28.50;77.10
2995;DHT22;35277;49.890;8.222;2023-09-12T10:05:50;28.50;77.10
2995;DHT22;35277;49.890;8.222;2023-09-12T10:08:22;28.50;77.10
2995;DHT22;35277;49.890;8.222;2023-09-12T10:10:51;28.50;77.10
2995;DHT22;35277;49.890;8.222;2023-09-12T10:13:21;28.50;77.10
2995;DHT22;35277;49.890;8.222;2023-09-12T10:15:55;28.50;77.10
2995;DHT22;35277;49.890;8.222;2023-09-12T10:18:25;28.50;77.10
2995;DHT22;35277;49.890;8.222;2023-09-12T10:21:04;28.50;77.10
2995;DHT22;35277;49.890;8.222;2023-09-12T10:23:36;28.50;77.20
2995;DHT22;35277;49.890;8.222;2023-09-12T10:26:11;28.50;77.20
2995;DHT22;35277;49.890;8.222;2023-09-12T10:28:40;28.50;77.20
2995;DHT22;35277;49.890;8.222;2023-09-12T10:31:12;28.50;77.20
2995;DHT22;35277;49.890;8.222;2023-09-12T10:33:40;28.50;77.20
2995;DHT22;35277;49.890;8.222;2023-09-12T10:36:09;28.50;77.20
2995;DHT22;35277;49.890;8.222;2023-09-12T10:38:42;28.50;77.20
2995;DHT22;35277;49.890;8.222;2023-09-12T10:41:11;28.50;77.20
2995;DHT22;35277;49.890;8.222;2023-09-12T10:43:42;28.50;77.30
2995;DHT22;35277;49.890;8.222;2023-09-12T10:46:14;28.50;77.30
2995;DHT22;35277;49.890;8.222;2023-09-12T10:48:42;28.50;77.30
2995;DHT22;35277;49.890;8.222;2023-09-12T10:51:11;28.50;77.30
2995;DHT22;35277;49.890;8.222;2023-09-12T10:53:45;28.50;77.40
2995;DHT22;35277;49.890;8.222;2023-09-12T10:56:17;28.50;77.40
2995;DHT22;35277;49.890;8.222;2023-09-12T10:59:11;28.50;77.50
2995;DHT22;35277;49.890;8.222;2023-09-12T11:01:42;28.50;77.50
2995;DHT22;35277;49.890;8.222;2023-09-12T11:04:34;28.50;77.50
2995;DHT22;35277;49.890;8.222;2023-09-12T11:07:32;28.50;77.60
2995;DHT22;35277;49.890;8.222;2023-09-12T11:10:19;28.50;77.60
2995;DHT22;35277;49.890;8.222;2023-09-12T11:12:49;28.50;77.60
2995;DHT22;35277;49.890;8.222;2023-09-12T11:15:18;28.60;77.70
2995;DHT22;35277;49.890;8.222;2023-09-12T11:17:48;28.50;77.70
2995;DHT22;35277;49.890;8.222;2023-09-12T11:20:17;28.60;77.80
2995;DHT22;35277;49.890;8.222;2023-09-12T11:22:46;28.50;77.70
2995;DHT22;35277;49.890;8.222;2023-09-12T11:25:19;28.60;77.80
2995;DHT22;35277;49.890;8.222;2023-09-12T11:28:05;28.60;77.80
2995;DHT22;35277;49.890;8.222;2023-09-12T11:30:33;28.60;77.80
2995;DHT22;35277;49.890;8.222;2023-09-12T11:33:05;28.60;77.70
2995;DHT22;35277;49.890;8.222;2023-09-12T11:35:37;28.60;77.80
2995;DHT22;35277;49.890;8.222;2023-09-12T11:38:10;28.60;77.70
2995;DHT22;35277;49.890;8.222;2023-09-12T11:40:43;28.50;77.70
2995;DHT22;35277;49.890;8.222;2023-09-12T11:43:22;28.60;77.70
2995;DHT22;35277;49.890;8.222;2023-09-12T11:45:50;28.60;77.80
2995;DHT22;35277;49.890;8.222;2023-09-12T11:48:20;28.60;77.70
2995;DHT22;35277;49.890;8.222;2023-09-12T11:50:52;28.60;77.70
2995;DHT22;35277;49.890;8.222;2023-09-12T11:53:22;28.60;77.80
2995;DHT22;35277;49.890;8.222;2023-09-12T11:55:53;28.60;77.80
2995;DHT22;35277;49.890;8.222;2023-09-12T11:58:22;28.60;77.70
2995;DHT22;35277;49.890;8.222;2023-09-12T12:00:51;28.60;77.80
2995;DHT22;35277;49.890;8.222;2023-09-12T12:03:22;28.60;77.70
2995;DHT22;35277;49.890;8.222;2023-09-12T12:05:50;28.60;77.80
2995;DHT22;35277;49.890;8.222;2023-09-12T12:08:19;28.60;77.80
2995;DHT22;35277;49.890;8.222;2023-09-12T12:10:58;28.60;77.80
2995;DHT22;35277;49.890;8.222;2023-09-12T12:13:26;28.60;77.80
2995;DHT22;35277;49.890;8.222;2023-09-12T12:15:56;28.60;77.70
2995;DHT22;35277;49.890;8.222;2023-09-12T12:18:26;28.60;77.70
2995;DHT22;35277;49.890;8.222;2023-09-12T12:20:54;28.60;77.70
2995;DHT22;35277;49.890;8.222;2023-09-12T12:23:22;28.60;77.70
2995;DHT22;35277;49.890;8.222;2023-09-12T12:25:50;28.60;77.70
2995;DHT22;35277;49.890;8.222;2023-09-12T12:28:17;28.60;77.70
2995;DHT22;35277;49.890;8.222;2023-09-12T12:30:45;28.60;77.70
2995;DHT22;35277;49.890;8.222;2023-09-12T12:33:14;28.60;77.70
2995;DHT22;35277;49.890;8.222;2023-09-12T12:36:04;28.60;77.70
2995;DHT22;35277;49.890;8.222;2023-09-12T12:38:35;28.60;77.70
2995;DHT22;35277;49.890;8.222;2023-09-12T12:41:08;28.60;77.70
2995;DHT22;35277;49.890;8.222;2023-09-12T12:43:39;28.60;77.70
2995;DHT22;35277;49.890;8.222;2023-09-12T12:46:10;28.60;77.70
2995;DHT22;35277;49.890;8.222;2023-09-12T12:48:41;28.60;77.70
2995;DHT22;35277;49.890;8.222;2023-09-12T12:51:16;28.70;77.80
2995;DHT22;35277;49.890;8.222;2023-09-12T12:53:46;28.60;77.70
2995;DHT22;35277;49.890;8.222;2023-09-12T12:56:21;28.70;77.70
2995;DHT22;35277;49.890;8.222;2023-09-12T12:58:51;28.70;77.80
2995;DHT22;35277;49.890;8.222;2023-09-12T13:01:19;28.70;77.70
2995;DHT22;35277;49.890;8.222;2023-09-12T13:03:47;28.70;77.70
2995;DHT22;35277;49.890;8.222;2023-09-12T13:06:18;28.70;77.70
2995;DHT22;35277;49.890;8.222;2023-09-12T13:08:47;28.70;77.70
2995;DHT22;35277;49.890;8.222;2023-09-12T13:11:16;28.70;77.60
2995;DHT22;35277;49.890;8.222;2023-09-12T13:13:46;28.70;77.50
2995;DHT22;35277;49.890;8.222;2023-09-12T13:16:16;28.70;77.50
2995;DHT22;35277;49.890;8.222;2023-09-12T13:18:44;28.70;78.40
2995;DHT22;35277;49.890;8.222;2023-09-12T13:21:12;28.70;77.60
2995;DHT22;35277;49.890;8.222;2023-09-12T13:23:41;28.70;77.70
2995;DHT22;35277;49.890;8.222;2023-09-12T13:26:10;28.70;77.70
2995;DHT22;35277;49.890;8.222;2023-09-12T13:28:38;28.70;77.70
2995;DHT22;35277;49.890;8.222;2023-09-12T13:31:06;28.70;77.80
2995;DHT22;35277;49.890;8.222;2023-09-12T13:33:34;28.70;77.80
2995;DHT22;35277;49.890;8.222;2023-09-12T13:36:02;28.70;77.80
2995;DHT22;35277;49.890;8.222;2023-09-12T13:38:30;28.70;77.70
2995;DHT22;35277;49.890;8.222;2023-09-12T13:40:59;28.70;77.70
2995;DHT22;35277;49.890;8.222;2023-09-12T13:43:27;28.70;77.70
2995;DHT22;35277;49.890;8.222;2023-09-12T13:45:55;28.70;77.60
2995;DHT22;35277;49.890;8.222;2023-09-12T13:48:23;28.70;77.70
2995;DHT22;35277;49.890;8.222;2023-09-12T13:50:52;28.70;77.60
2995;DHT22;35277;49.890;8.222;2023-09-12T13:53:20;28.70;77.60
2995;DHT22;35277;49.890;8.222;2023-09-12T13:55:48;28.60;77.50
2995;DHT22;35277;49.890;8.222;2023-09-12T13:58:21;28.60;77.50
2995;DHT22;35277;49.890;8.222;2023-09-12T14:00:49;28.60;77.40
2995;DHT22;35277;49.890;8.222;2023-09-12T14:03:17;28.60;77.50
2995;DHT22;35277;49.890;8.222;2023-09-12T14:05:46;28.60;77.40
2995;DHT22;35277;49.890;8.222;2023-09-12T14:08:15;28.60;77.40
2995;DHT22;35277;49.890;8.222;2023-09-12T14:10:44;28.60;77.40
2995;DHT22;35277;49.890;8.222;2023-09-12T14:13:12;28.60;77.30
2995;DHT22;35277;49.890;8.222;2023-09-12T14:15:49;28.60;77.30
2995;DHT22;35277;49.890;8.222;2023-09-12T14:18:19;28.60;77.30
2995;DHT22;35277;49.890;8.222;2023-09-12T14:20:48;28.60;77.30
2995;DHT22;35277;49.890;8.222;2023-09-12T14:23:19;28.60;77.30
2995;DHT22;35277;49.890;8.222;2023-09-12T14:25:48;28.60;77.20
2995;DHT22;35277;49.890;8.222;2023-09-12T14:28:17;28.60;77.20
2995;DHT22;35277;49.890;8.222;2023-09-12T14:30:45;28.60;77.20
2995;DHT22;35277;49.890;8.222;2023-09-12T14:33:14;28.60;77.20
2995;DHT22;35277;49.890;8.222;2023-09-12T14:35:44;28.60;77.20
2995;DHT22;35277;49.890;8.222;2023-09-12T14:38:13;28.60;77.10
2995;DHT22;35277;49.890;8.222;2023-09-12T14:40:40;28.60;77.10
2995;DHT22;35277;49.890;8.222;2023-09-12T14:43:11;28.60;77.10
2995;DHT22;35277;49.890;8.222;2023-09-12T14:45:40;28.60;77.10
2995;DHT22;35277;49.890;8.222;2023-09-12T14:48:08;28.60;77.10
2995;DHT22;35277;49.890;8.222;2023-09-12T14:50:37;28.60;77.10
2995;DHT22;35277;49.890;8.222;2023-09-12T14:53:10;28.60;77.00
2995;DHT22;35277;49.890;8.222;2023-09-12T14:55:38;28.60;77.00
2995;DHT22;35277;49.890;8.222;2023-09-12T14:58:06;28.70;77.00
2995;DHT22;35277;49.890;8.222;2023-09-12T15:00:34;28.70;77.00
2995;DHT22;35277;49.890;8.222;2023-09-12T15:03:03;28.70;77.00
2995;DHT22;35277;49.890;8.222;2023-09-12T15:05:31;28.70;77.00
2995;DHT22;35277;49.890;8.222;2023-09-12T15:08:00;28.70;76.90
2995;DHT22;35277;49.890;8.222;2023-09-12T15:10:29;28.70;76.90
2995;DHT22;35277;49.890;8.222;2023-09-12T15:12:57;28.70;76.90
2995;DHT22;35277;49.890;8.222;2023-09-12T15:15:25;28.70;76.80
2995;DHT22;35277;49.890;8.222;2023-09-12T15:17:53;28.70;76.80
2995;DHT22;35277;49.890;8.222;2023-09-12T15:20:21;28.70;76.80
2995;DHT22;35277;49.890;8.222;2023-09-12T15:22:48;28.70;76.80
2995;DHT22;35277;49.890;8.222;2023-09-12T15:25:18;28.70;76.80
2995;DHT22;35277;49.890;8.222;2023-09-12T15:27:45;28.70;76.70
2995;DHT22;35277;49.890;8.222;2023-09-12T15:30:14;28.70;76.70
2995;DHT22;35277;49.890;8.222;2023-09-12T15:32:41;28.70;76.70
2995;DHT22;35277;49.890;8.222;2023-09-12T15:35:09;28.70;76.70
2995;DHT22;35277;49.890;8.222;2023-09-12T15:37:37;28.80;76.70
2995;DHT22;35277;49.890;8.222;2023-09-12T15:40:06;28.80;76.70
2995;DHT22;35277;49.890;8.222;2023-09-12T15:42:35;28.80;76.70
2995;DHT22;35277;49.890;8.222;2023-09-12T15:45:05;28.80;76.70
2995;DHT22;35277;49.890;8.222;2023-09-12T15:47:35;28.80;76.70
2995;DHT22;35277;49.890;8.222;2023-09-12T15:50:04;28.80;76.70
2995;DHT22;35277;49.890;8.222;2023-09-12T15:52:32;28.70;76.60
2995;DHT22;35277;49.890;8.222;2023-09-12T15:55:04;28.80;76.70
2995;DHT22;35277;49.890;8.222;2023-09-12T15:57:32;28.70;76.60
2995;DHT22;35277;49.890;8.222;2023-09-12T16:00:02;28.80;76.70